createdAt,value
2018-09-25T08:49:51.632Z,50.18
2018-09-25T08:52:25.385Z,50.01
2018-09-25T08:54:58.993Z,50.83
2018-09-25T08:57:32.688Z,49.50
2018-09-25T09:00:06.436Z,50.64
2018-09-25T09:02:40.096Z,50.41
2018-09-25T09:05:13.954Z,50.51
2018-09-25T09:07:47.727Z,49.91
2018-09-25T09:10:21.500Z,49.64
2018-09-25T09:12:55.282Z,50.39
2018-09-25T09:15:29.001Z,48.46
2018-09-25T09:18:02.715Z,48.23
2018-09-25T09:20:36.372Z,50.64
2018-09-25T09:23:10.181Z,47.89
2018-09-25T09:25:43.956Z,46.35
2018-09-25T09:28:18.525Z,44.74
2018-09-25T09:30:52.219Z,44.80
2018-09-25T09:33:26.111Z,45.23
2018-09-25T09:36:00.067Z,46.77
2018-09-25T09:38:33.755Z,44.73
2018-09-25T09:41:07.716Z,44.35
2018-09-25T09:43:41.704Z,41.56
2018-09-25T09:46:15.404Z,41.29
2018-09-25T09:48:49.223Z,40.20
2018-09-25T09:51:23.473Z,39.10
2018-09-25T09:53:57.224Z,39.06
2018-09-25T09:56:30.990Z,37.64
2018-09-25T09:59:04.596Z,37.76
2018-09-25T10:01:38.268Z,38.20
2018-09-25T10:04:12.220Z,37.28
2018-09-25T10:06:46.300Z,36.35
2018-09-25T10:09:20.031Z,37.07
2018-09-25T10:11:54.027Z,38.98
2018-09-25T10:14:27.803Z,41.21
2018-09-25T10:17:01.565Z,39.90
2018-09-25T10:19:35.407Z,39.29
2018-09-25T10:22:09.248Z,38.86
2018-09-25T10:24:42.996Z,39.91
2018-09-25T10:27:16.921Z,40.35
2018-09-25T10:29:50.737Z,39.03
2018-09-25T10:32:24.567Z,37.60
2018-09-25T10:34:58.337Z,40.08
2018-09-25T10:37:32.188Z,38.98
2018-09-25T10:40:06.089Z,39.46
2018-09-25T10:42:40.025Z,41.41
2018-09-25T10:45:13.776Z,41.23
2018-09-25T10:47:47.490Z,39.76
2018-09-25T10:50:21.140Z,37.80
2018-09-25T10:52:54.964Z,39.16
2018-09-25T10:55:28.781Z,39.14
2018-09-25T10:58:02.622Z,39.16
2018-09-25T11:00:36.298Z,39.11
2018-09-25T11:03:10.133Z,39.37
2018-09-25T11:05:44.008Z,39.25
2018-09-25T11:08:17.852Z,39.71
2018-09-25T11:10:51.573Z,39.86
2018-09-25T11:13:25.200Z,37.27
2018-09-25T11:15:58.779Z,37.59
2018-09-25T11:18:32.613Z,37.28
2018-09-25T11:21:06.409Z,35.91
2018-09-25T11:23:40.238Z,37.52
2018-09-25T11:26:13.967Z,38.31
2018-09-25T11:28:47.691Z,37.50
2018-09-25T11:31:21.340Z,37.83
2018-09-25T11:33:55.028Z,36.00
2018-09-25T11:36:28.812Z,37.10
2018-09-25T11:39:02.576Z,37.13
2018-09-25T11:41:36.240Z,36.97
2018-09-25T11:44:09.939Z,36.84
2018-09-25T11:46:43.679Z,36.15
2018-09-25T11:49:17.404Z,36.64
2018-09-25T11:51:51.012Z,37.02
2018-09-25T11:54:24.779Z,36.61
2018-09-25T11:56:58.585Z,37.35
2018-09-25T11:59:32.938Z,37.28
2018-09-25T12:02:06.775Z,37.58
2018-09-25T12:04:40.406Z,37.32
2018-09-25T12:07:14.096Z,36.20
2018-09-25T12:09:48.344Z,36.51
2018-09-25T12:12:22.580Z,37.56
2018-09-25T12:14:56.308Z,37.19
2018-09-25T12:17:30.112Z,34.55
2018-09-25T12:20:03.935Z,36.23
2018-09-25T12:22:37.703Z,38.23
2018-09-25T12:25:11.719Z,37.15
2018-09-25T12:27:45.407Z,38.17
2018-09-25T12:30:19.420Z,38.27
2018-09-25T12:32:53.274Z,37.02
2018-09-25T12:35:27.060Z,35.25
2018-09-25T12:38:00.840Z,34.98
2018-09-25T12:40:34.640Z,36.64
2018-09-25T12:43:08.481Z,36.52
2018-09-25T12:45:42.323Z,37.87
2018-09-25T12:48:16.018Z,38.77
2018-09-25T12:50:49.671Z,37.57
2018-09-25T12:53:23.377Z,37.69
2018-09-25T12:55:57.226Z,36.78
2018-09-25T12:58:30.990Z,35.65
2018-09-25T13:01:04.847Z,36.06
2018-09-25T13:03:38.584Z,35.37
2018-09-25T13:06:12.201Z,35.62
2018-09-25T13:08:46.027Z,34.35
2018-09-25T13:11:19.816Z,34.84
2018-09-25T13:13:53.514Z,35.76
2018-09-25T13:16:27.302Z,36.80
2018-09-25T13:19:01.047Z,35.61
2018-09-25T13:21:34.831Z,36.47
2018-09-25T13:24:08.664Z,36.74
2018-09-25T13:26:42.412Z,36.77
2018-09-25T13:29:16.119Z,36.52
2018-09-25T13:31:49.915Z,36.11
2018-09-25T13:34:23.633Z,35.77
2018-09-25T13:36:57.957Z,36.45
2018-09-25T13:39:31.790Z,36.29
2018-09-25T13:42:05.558Z,33.56
2018-09-25T13:44:39.492Z,33.83
2018-09-25T13:47:13.332Z,35.04
2018-09-25T13:49:47.132Z,34.19
2018-09-25T13:52:20.780Z,32.45
2018-09-25T13:54:54.636Z,33.79
2018-09-25T13:57:28.538Z,35.35
2018-09-25T14:00:02.211Z,35.46
2018-09-25T14:02:38.992Z,35.42
2018-09-25T14:05:12.963Z,36.28
2018-09-25T14:07:46.801Z,36.91
2018-09-25T14:10:21.484Z,35.92
2018-09-25T14:12:55.897Z,37.06
2018-09-25T14:15:29.548Z,37.29
2018-09-25T14:18:03.280Z,36.27
2018-09-25T14:20:37.081Z,36.21
2018-09-25T14:23:10.813Z,36.84
2018-09-25T14:25:44.764Z,35.80
2018-09-25T14:28:18.451Z,36.09
2018-09-25T14:30:52.976Z,35.76
2018-09-25T14:33:26.852Z,35.67
2018-09-25T14:36:00.790Z,36.40
2018-09-25T14:38:35.422Z,36.42
2018-09-25T14:41:09.095Z,37.26
2018-09-25T14:43:42.981Z,37.57
2018-09-25T14:46:16.809Z,36.54
2018-09-25T14:48:50.529Z,37.04
2018-09-25T14:51:24.175Z,35.42
2018-09-25T14:53:57.925Z,36.21
2018-09-25T14:56:32.322Z,35.90
2018-09-25T14:59:06.195Z,35.03
2018-09-25T15:01:39.983Z,35.72
2018-09-25T15:04:13.833Z,36.24
2018-09-25T15:06:47.559Z,37.22
2018-09-25T15:09:21.607Z,37.76
2018-09-25T15:11:55.492Z,37.21
2018-09-25T15:14:29.280Z,36.06
2018-09-25T15:17:03.115Z,37.23
2018-09-25T15:19:36.966Z,37.93
2018-09-25T15:22:11.124Z,37.26
2018-09-25T15:24:44.632Z,37.37
2018-09-25T15:27:18.464Z,36.09
2018-09-25T15:29:52.217Z,37.22
2018-09-25T15:32:26.252Z,36.76
2018-09-25T15:35:00.121Z,36.34
2018-09-25T15:37:34.008Z,36.30
2018-09-25T15:40:08.109Z,36.42
2018-09-25T15:42:41.889Z,36.72
2018-09-25T15:45:15.578Z,37.31
2018-09-25T15:47:49.477Z,37.19
2018-09-25T15:50:23.709Z,36.80
2018-09-25T15:52:57.704Z,37.25
2018-09-25T15:55:31.775Z,36.61
2018-09-25T15:58:05.853Z,38.37
2018-09-25T16:00:39.780Z,37.92
2018-09-25T16:03:13.631Z,39.33
2018-09-25T16:05:47.467Z,39.45
2018-09-25T16:08:21.858Z,38.44
2018-09-25T16:10:55.585Z,40.27
2018-09-25T16:13:29.260Z,40.64
2018-09-25T16:16:02.924Z,40.16
2018-09-25T17:34:47.971Z,53.33
2018-09-25T17:37:21.769Z,53.39
2018-09-25T17:39:55.604Z,53.64
2018-09-25T17:42:29.151Z,54.04
2018-09-25T17:45:02.971Z,54.43
2018-09-25T17:47:36.577Z,55.21
2018-09-25T17:53:00.439Z,54.94
2018-09-25T17:55:34.129Z,56.37
2018-09-25T17:58:08.420Z,55.92
2018-09-25T18:00:42.446Z,55.93
2018-09-25T18:03:17.210Z,55.95
2018-09-25T18:05:51.747Z,56.69
2018-09-25T18:08:25.521Z,56.64
2018-09-25T18:10:59.404Z,56.13
2018-09-25T18:13:33.317Z,56.29
2018-09-25T18:16:07.024Z,57.04
2018-09-25T18:18:40.876Z,56.46
2018-09-25T18:21:14.841Z,57.28
2018-09-25T18:23:48.425Z,57.30
2018-09-25T18:26:22.275Z,57.67
2018-09-25T18:28:55.916Z,57.09
2018-09-25T18:31:29.633Z,58.17
2018-09-25T18:34:03.312Z,57.64
2018-09-25T18:36:37.133Z,57.48
2018-09-25T18:39:13.333Z,58.48
2018-09-25T18:41:47.323Z,58.01
2018-09-25T18:44:21.081Z,57.90
2018-09-25T18:46:54.924Z,57.47
2018-09-25T18:49:28.744Z,56.36
2018-09-25T18:52:02.537Z,56.52
2018-09-25T18:54:36.274Z,57.70
2018-09-25T18:57:10.127Z,57.78
2018-09-25T18:59:44.490Z,57.64
2018-09-25T19:02:18.244Z,57.65
2018-09-25T19:04:52.043Z,58.17
2018-09-25T19:07:25.795Z,58.23
2018-09-25T19:09:59.574Z,57.99
2018-09-25T19:12:33.367Z,57.68
2018-09-25T19:15:07.081Z,57.91
2018-09-25T19:17:40.928Z,57.75
2018-09-25T19:20:14.759Z,57.68
2018-09-25T19:22:48.513Z,57.94
2018-09-25T19:25:22.197Z,58.52
2018-09-25T19:27:55.942Z,58.18
2018-09-25T19:30:29.729Z,58.59
2018-09-25T19:38:45.945Z,58.61
2018-09-25T19:41:19.792Z,59.41
2018-09-25T19:43:53.556Z,59.96
2018-09-25T19:46:27.283Z,60.01
2018-09-25T19:49:01.088Z,59.84
2018-09-25T19:51:34.720Z,59.73
2018-09-25T19:54:08.808Z,59.96
2018-09-25T19:56:42.591Z,60.33
2018-09-25T19:59:16.324Z,59.64
2018-09-25T20:01:50.199Z,59.65
2018-09-25T20:04:23.962Z,59.38
2018-09-25T20:06:57.736Z,60.17
2018-09-25T20:09:31.437Z,60.56
2018-09-25T20:12:05.098Z,60.87
2018-09-25T20:14:38.934Z,61.77
2018-09-25T20:17:12.554Z,62.17
2018-09-25T20:19:46.404Z,61.78
2018-09-25T20:22:20.116Z,62.42
2018-09-25T20:24:53.905Z,62.71
2018-09-25T20:27:27.690Z,62.50
2018-09-25T20:30:01.426Z,62.00
2018-09-25T20:32:35.301Z,62.13
2018-09-25T20:35:09.163Z,61.33
2018-09-25T20:37:42.984Z,60.77
2018-09-25T20:40:16.764Z,61.18
2018-09-25T20:42:50.479Z,61.05
2018-09-25T20:45:24.303Z,60.88
2018-09-25T20:47:57.988Z,59.90
2018-09-25T20:50:31.672Z,60.13
2018-09-25T20:53:05.468Z,59.32
2018-09-25T20:55:39.161Z,59.54
2018-09-25T20:58:13.003Z,60.97
2018-09-25T21:00:46.852Z,60.93
2018-09-25T21:03:20.638Z,61.14
2018-09-25T21:05:54.279Z,61.20
2018-09-25T21:08:27.920Z,61.89
2018-09-25T21:11:01.736Z,61.33
2018-09-25T21:13:35.366Z,61.17
2018-09-25T21:16:09.077Z,61.80
2018-09-25T21:18:42.693Z,61.26
2018-09-25T21:21:17.146Z,61.31
2018-09-25T21:23:50.811Z,60.60
2018-09-25T21:26:32.038Z,60.20
2018-09-25T21:29:05.756Z,59.73
2018-09-25T21:31:39.464Z,59.71
2018-09-25T21:34:13.262Z,58.95
2018-09-25T21:36:47.105Z,59.73
2018-09-25T21:39:20.968Z,59.85
2018-09-25T21:41:54.716Z,59.29
2018-09-25T21:44:28.377Z,59.69
2018-09-25T21:47:02.211Z,60.86
2018-09-25T21:49:36.128Z,61.25
2018-09-25T21:52:09.987Z,61.31
2018-09-25T21:54:43.778Z,61.79
2018-09-25T21:57:17.779Z,61.82
2018-09-25T21:59:51.452Z,62.58
2018-09-25T22:02:25.889Z,62.22
2018-09-25T22:04:59.603Z,62.33
2018-09-25T22:07:33.446Z,62.55
2018-09-25T22:10:07.172Z,62.85
2018-09-25T22:12:41.205Z,63.31
2018-09-25T22:15:15.030Z,63.64
2018-09-25T23:12:42.528Z,63.71
2018-09-25T23:15:16.424Z,63.50
2018-09-25T23:17:50.139Z,63.83
2018-09-25T23:20:24.024Z,63.87
2018-09-25T23:22:57.707Z,63.80
2018-09-25T23:25:31.659Z,63.78
2018-09-25T23:28:05.348Z,64.49
2018-09-25T23:30:39.343Z,64.43
2018-09-25T23:33:13.148Z,63.73
2018-09-25T23:35:47.039Z,64.22
2018-09-25T23:38:21.523Z,63.88
2018-09-25T23:40:55.430Z,64.04
2018-09-25T23:43:28.965Z,64.65
2018-09-25T23:46:06.545Z,64.68
2018-09-25T23:49:47.547Z,64.13
2018-09-25T23:53:22.983Z,64.23
2018-09-25T23:55:56.687Z,63.68
2018-09-25T23:58:33.357Z,64.21
